Park Rapids, Minnesota
Current Conditions -  °F | °C
As of 12:53 PM on Tuesday 21 Oct 2014 (Local Time) from KPKD Reporting Station
Clear Clear  
Wind Chill: 12°   Ceiling: Unl
Heat Index: 12°   Visibility: 10mi
Dew Point:   Wind: 15mph
Humidity: 57%   Direction: 130°SE
Pressure: 30.09"   Gusts: NA
Location:  46.92°N, 95.06°W
Report Text: KPKD 211753Z AUTO 13013KT 10SM CLR 12/03 A3009 RMK AO2 SLP202 T01170033 10117 20011 58011 TSNO
Loading
Personal Weather Stations






























Interactive Weather Map
Tropical Storm Tracking
New forecast layout! Learn more

10-Day Weather Forecast

Advertisements
Track Severe Weather on mobile